Whitingham, VT (05361)

3:30 AM EST on February 07, 2016 (GMT -0500)
Fuller Hill | | Change Station
CLOSE
Current Station
Personal Weather Station
Location: Whitingham, VT
Elevation: 1693 ft
Nearby Weather Stations

Elev 1693 ft 42.82 °N, 72.86 °W | Updated 21 seconds ago

Partly Cloudy
Partly Cloudy
24.6 °F
Feels Like 25 °F
N
0.0
Wind Variable Wind from SSE
Gusts 0.0 mph

Today
High -- | Low -- °F
--% Chance of Precip.
Yesterday
High -- | Low -- °F
Precip. -- in
Pressure 30.15 in
Visibility 10.0 miles
Clouds Overcast 6500 ft
Windchill 25 °F
Dew Point 15 °F
Humidity 66%
Rainfall 0.00 in
Snow Depth Not available.
6:59 AM 5:11 PM
Waning Crescent, 2% visible
METAR KAQW 070752Z AUTO 33004KT 10SM OVC065 01/M07 A3013 RMK AO2 SLP210 T00061072
Pressure 30.15 in
Visibility 10.0 miles
Clouds Overcast 6500 ft
Windchill 25 °F
Dew Point 15 °F
Humidity 66%
Rainfall 0.00 in
Snow Depth Not available.
6:59 AM 5:11 PM
Waning Crescent, 2% visible
METAR KAQW 070752Z AUTO 33004KT 10SM OVC065 01/M07 A3013 RMK AO2 SLP210 T00061072

10-Day Weather Forecast

Almanac

Astronomy

Feb. 07, 2016 Rise Set
Actual Time
Civil Twilight
Nautical Twilight
Astronomical Twilight
Moon
Length of Visible Light
Length of Day
Tomorrow will be .
, % of the Moon is Illuminated

Today's Extremes

State Highs State Lows

Community

WunderPhotos

Upload Photos

1,891,171 photos uploaded!

WunderBlog® & News

Nearby

Air Quality

  Air Quality AQ Index Pollutant
Not available.

Snow Depth

Station Depth Elevation

Earthquake Activity

City Distance Mag. Time & Date
Minimum magnitude displayed is 2.5.

Coastal Water Temperatures

Place Temperature

Stations

Nearby Weather Stations

Station Location Temp. Windchill Dew Point Humidity Wind Precip. Elev Updated Type
                   

Watches & Warnings

There are currently no watches in effect.